Maersk Nimes — VRFO7 — position and weather

sailwx.info

Track history (hours):
 
Tides and Currents Weather Stations Pressure Air Temp Water Temp Dewpoint Dewpoint Depression Visibility Wind Speed Wind Dir Waves Ship Positions

Maersk Nimes

Last reported at 2015-Mar-29 10:22 UTC. Time now 2015-Mar-29 20:51 UTC.
Position N 37°08' W 033°55'.

Length 210 m; draft 10.1 m.

Type: Cargo ship. MMSI: 477559200.

Date/timePositionNaut miles runAvg speedWind from/ knotsBaromVisibWave heightAir tempDewpointWater temp
2015-Mar-29 10:22N 37°08' W 033°55'6516.8
2015-Mar-29 06:28N 37°41' W 032°44'1716.8
2015-Mar-29 05:27N 37°50' W 032°26'1716.3
2015-Mar-29 04:24N 37°60' W 032°08'1416.5
2015-Mar-29 03:33N 38°07' W 031°53'1716.4
2015-Mar-29 02:32N 38°15' W 031°34'1616.1
2015-Mar-29 01:33N 38°23' W 031°17'1716.1
2015-Mar-29 00:31N 38°32' W 030°59'1515.9
2015-Mar-28 23:33N 38°41' W 030°42'1615.9
2015-Mar-28 22:33N 38°49' W 030°25'1616.1
2015-Mar-28 21:33N 38°57' W 030°07'1616.0
2015-Mar-28 20:33N 39°05' W 029°50'1615.9
2015-Mar-28 19:33N 39°13' W 029°32'1615.7
2015-Mar-28 18:34N 39°21' W 029°14'1515.4
2015-Mar-28 17:33N 39°29' W 028°57'1515.3
2015-Mar-28 16:33N 39°37' W 028°40'1515.2
2015-Mar-28 15:33N 39°45' W 028°23'1515.3
2015-Mar-28 14:33N 39°53' W 028°06'1515.2
2015-Mar-28 13:33N 40°01' W 027°49'12116.0
2015-Mar-28 06:00N 41°00' W 025°30'9415.7 180 / 111032.0 5.4 3.516.012.414.0
2015-Mar-28 00:00N 41°48' W 023°42'27415.2 190 / 241029.5 5.4 2.015.213.2
2015-Mar-27 06:00N 44°06' W 018°18'80716.0 200 / 171028.0 5.4 2.514.012.213.0
2015-Mar-25 03:33N 50°22' W 000°47'3717.1
2015-Mar-25 01:22N 50°32' E 000°09'1315.4
2015-Mar-25 00:33N 50°36' E 000°28'1515.4
2015-Mar-24 23:33N 50°44' E 000°49'1817.3
2015-Mar-24 22:32N 50°55' E 001°11'1919.5
2015-Mar-24 21:33N 51°07' E 001°34'1918.9
2015-Mar-24 20:33N 51°21' E 001°55'1414.1
2015-Mar-24 19:33N 51°20' E 002°18'1716.7
2015-Mar-24 18:33N 51°23' E 002°44'1413.6
2015-Mar-24 17:33N 51°24' E 003°06'1515.3
2015-Mar-24 16:34N 51°25' E 003°30'1010.0
2015-Mar-24 15:33N 51°22' E 003°45'1110.7
2015-Mar-24 14:34N 51°26' E 004°01'8 8.4
2015-Mar-24 13:34N 51°22' E 004°13'5 4.4
2015-Mar-24 12:30N 51°18' E 004°16'0 0.0
2015-Mar-24 11:30N 51°18' E 004°16'0 0.0
2015-Mar-24 10:33N 51°18' E 004°16'0 0.0
2015-Mar-24 09:33N 51°18' E 004°16'0 0.0
2015-Mar-24 08:33N 51°18' E 004°16'0 0.0
2015-Mar-24 07:30N 51°18' E 004°16'0 0.0
2015-Mar-24 06:33N 51°18' E 004°16'0 0.0
2015-Mar-24 05:33N 51°18' E 004°16'0 0.0
2015-Mar-24 04:27N 51°18' E 004°16'2 2.5
2015-Mar-24 03:34N 51°20' E 004°16'9 9.2
2015-Mar-24 02:33N 51°23' E 004°02'8 8.2
2015-Mar-24 01:34N 51°21' E 003°50'1110.5
2015-Mar-24 00:33N 51°26' E 003°35'1716.6
2015-Mar-23 23:33N 51°24' E 003°08'10 9.6
2015-Mar-23 22:33N 51°33' E 003°09'1414.2
2015-Mar-23 21:33N 51°47' E 003°14'1111.0
2015-Mar-23 20:32N 51°58' E 003°19'9 8.0
2015-Mar-23 19:25N 52°03' E 003°31'9 9.6
2015-Mar-23 18:32N 52°03' E 003°45'8 7.8
2015-Mar-23 17:33N 52°01' E 003°57'10 9.9
2015-Mar-23 16:33N 51°57' E 004°11'7 6.7
2015-Mar-23 15:33N 51°54' E 004°21'3 3.2
2015-Mar-23 14:32N 51°53' E 004°26'0 0.0
2015-Mar-23 13:32N 51°53' E 004°26'0 0.0
2015-Mar-23 12:32N 51°53' E 004°26'0 0.0
2015-Mar-23 11:32N 51°53' E 004°26'0 0.0
2015-Mar-23 10:32N 51°53' E 004°26'0 0.0
2015-Mar-23 09:32N 51°53' E 004°26'0 0.0
2015-Mar-23 08:32N 51°53' E 004°26'0 0.0
2015-Mar-23 07:32N 51°53' E 004°26'0 0.0
2015-Mar-23 06:32N 51°53' E 004°26'0 0.0
2015-Mar-23 05:29N 51°53' E 004°26'2 1.6
2015-Mar-23 04:33N 51°54' E 004°23'9 8.7
2015-Mar-23 03:33N 51°57' E 004°10'1110.9
2015-Mar-23 02:33N 52°01' E 003°54'9 9.0
2015-Mar-23 01:33N 52°08' E 003°46'1312.7
2015-Mar-23 00:33N 52°21' E 003°48'1413.5
2015-Mar-22 23:33N 52°34' E 003°52'3816.3
2015-Mar-22 21:13N 53°08' E 004°22'1315.8
2015-Mar-22 20:25N 53°19' E 004°32'1314.7
2015-Mar-22 19:33N 53°29' E 004°44'1515.3
2015-Mar-22 18:33N 53°36' E 005°07'1616.1
2015-Mar-22 17:33N 53°41' E 005°33'1817.7
2015-Mar-22 16:33N 53°46' E 006°02'2118.2
2015-Mar-22 15:25N 53°52' E 006°35'2117.7
2015-Mar-22 14:16N 53°56' E 007°09'1217.1
2015-Mar-22 13:33N 53°59' E 007°29'1414.4
2015-Mar-22 12:34N 53°52' E 007°51'1313.1
2015-Mar-22 11:33N 53°46' E 008°11'1413.7
2015-Mar-22 10:33N 53°37' E 008°29'2 2.3
2015-Mar-22 09:32N 53°35' E 008°31'0 0.0
2015-Mar-22 08:26N 53°35' E 008°31'0 0.0
2015-Mar-22 07:29N 53°35' E 008°31'0 0.0
2015-Mar-22 06:32N 53°35' E 008°31'0 0.0
2015-Mar-22 05:23N 53°35' E 008°31'0 0.0
2015-Mar-22 04:29N 53°35' E 008°31'0 0.0
2015-Mar-22 03:26N 53°35' E 008°31'0 0.0
2015-Mar-22 02:29N 53°35' E 008°31'0 0.0
2015-Mar-22 01:32N 53°35' E 008°31'0 0.0
2015-Mar-22 00:32N 53°35' E 008°31'0 0.0
2015-Mar-21 23:32N 53°35' E 008°31'0 0.0
2015-Mar-21 22:29N 53°35' E 008°31'0 0.0
2015-Mar-21 21:23N 53°35' E 008°31'0 0.0
2015-Mar-21 20:32N 53°35' E 008°31'0 0.0
2015-Mar-21 19:17N 53°35' E 008°31'0 0.0
2015-Mar-21 18:29N 53°35' E 008°31'0 0.0
2015-Mar-21 17:29N 53°35' E 008°31'0 0.0
2015-Mar-21 16:32N 53°35' E 008°31'0 0.0
2015-Mar-21 15:32N 53°35' E 008°31'0 0.0
2015-Mar-21 14:32N 53°35' E 008°31'0 0.1
2015-Mar-21 13:33N 53°35' E 008°31'1111.0
2015-Mar-21 12:34N 53°43' E 008°18'1616.1
2015-Mar-21 11:33N 53°52' E 007°55'4 4.3
2015-Mar-21 10:32N 53°56' E 007°52'0 0.0
2015-Mar-21 09:32N 53°56' E 007°52'0 0.0
2015-Mar-21 08:29N 53°56' E 007°52'0 0.0
2015-Mar-21 07:32N 53°56' E 007°52'0 0.0
2015-Mar-21 06:29N 53°56' E 007°52'0 0.0
2015-Mar-21 05:23N 53°56' E 007°52'0 0.3
2015-Mar-21 04:32N 53°56' E 007°51'0 0.0
2015-Mar-21 03:29N 53°56' E 007°51'0 0.1
2015-Mar-21 02:29N 53°56' E 007°51'0 0.1
2015-Mar-21 01:32N 53°56' E 007°51'0 0.1
2015-Mar-21 00:32N 53°56' E 007°51'6 6.3
2015-Mar-20 23:33N 53°57' E 007°41'1212.1
2015-Mar-20 22:33N 54°07' E 007°29'1312.8
2015-Mar-20 21:33N 54°19' E 007°22'1313.0
2015-Mar-20 20:33N 54°31' E 007°14'1313.2
2015-Mar-20 19:33N 54°43' E 007°05'19710.9
2015-Mar-20 01:32N 57°42' E 009°34'1513.1
2015-Mar-20 00:25N 57°47' E 009°60'1213.3
2015-Mar-19 23:33N 57°49' E 010°21'1312.7
2015-Mar-19 22:33N 57°48' E 010°45'1212.2
2015-Mar-19 21:33N 57°40' E 011°03'1616.4
2015-Mar-19 20:33N 57°29' E 011°25'1716.9
2015-Mar-19 19:34N 57°13' E 011°36'1716.6
2015-Mar-19 18:33N 56°57' E 011°46'1515.4
2015-Mar-19 17:33N 56°42' E 011°51'1716.8
2015-Mar-19 16:33N 56°28' E 011°35'1717.1
2015-Mar-19 15:33N 56°13' E 011°19'1717.5
2015-Mar-19 14:33N 55°59' E 011°02'1817.9
2015-Mar-19 13:33N 55°43' E 010°48'2316.6
2015-Mar-19 12:12N 55°22' E 011°02'913.0
2015-Mar-19 11:31N 55°13' E 011°06'1514.4
2015-Mar-19 10:29N 54°59' E 010°59'  
Track history (hours):
 
Tides and Currents Weather Stations Pressure Air Temp Water Temp Dewpoint Dewpoint Depression Visibility Wind Speed Wind Dir Waves Ship Positions

Maersk Nimes

Last reported at 2015-Mar-29 10:22 UTC. Time now 2015-Mar-29 20:51 UTC.
Position N 37°08' W 033°55'.

Length 210 m; draft 10.1 m.

Type: Cargo ship. MMSI: 477559200.

Date/timePositionNaut miles runAvg speedWind from/ knotsBaromVisibWave heightAir tempDewpointWater temp
2015-Mar-29 10:22N 37°08' W 033°55'6516.8
2015-Mar-29 06:28N 37°41' W 032°44'1716.8
2015-Mar-29 05:27N 37°50' W 032°26'1716.3
2015-Mar-29 04:24N 37°60' W 032°08'1416.5
2015-Mar-29 03:33N 38°07' W 031°53'1716.4
2015-Mar-29 02:32N 38°15' W 031°34'1616.1
2015-Mar-29 01:33N 38°23' W 031°17'1716.1
2015-Mar-29 00:31N 38°32' W 030°59'1515.9
2015-Mar-28 23:33N 38°41' W 030°42'1615.9
2015-Mar-28 22:33N 38°49' W 030°25'1616.1
2015-Mar-28 21:33N 38°57' W 030°07'1616.0
2015-Mar-28 20:33N 39°05' W 029°50'1615.9
2015-Mar-28 19:33N 39°13' W 029°32'1615.7
2015-Mar-28 18:34N 39°21' W 029°14'1515.4
2015-Mar-28 17:33N 39°29' W 028°57'1515.3
2015-Mar-28 16:33N 39°37' W 028°40'1515.2
2015-Mar-28 15:33N 39°45' W 028°23'1515.3
2015-Mar-28 14:33N 39°53' W 028°06'1515.2
2015-Mar-28 13:33N 40°01' W 027°49'12116.0
2015-Mar-28 06:00N 41°00' W 025°30'9415.7 180 / 111032.0 5.4 3.516.012.414.0
2015-Mar-28 00:00N 41°48' W 023°42'27415.2 190 / 241029.5 5.4 2.015.213.2
2015-Mar-27 06:00N 44°06' W 018°18'80716.0 200 / 171028.0 5.4 2.514.012.213.0
2015-Mar-25 03:33N 50°22' W 000°47'3717.1
2015-Mar-25 01:22N 50°32' E 000°09'1315.4
2015-Mar-25 00:33N 50°36' E 000°28'1515.4
2015-Mar-24 23:33N 50°44' E 000°49'1817.3
2015-Mar-24 22:32N 50°55' E 001°11'1919.5
2015-Mar-24 21:33N 51°07' E 001°34'1918.9
2015-Mar-24 20:33N 51°21' E 001°55'1414.1
2015-Mar-24 19:33N 51°20' E 002°18'1716.7
2015-Mar-24 18:33N 51°23' E 002°44'1413.6
2015-Mar-24 17:33N 51°24' E 003°06'1515.3
2015-Mar-24 16:34N 51°25' E 003°30'1010.0
2015-Mar-24 15:33N 51°22' E 003°45'1110.7
2015-Mar-24 14:34N 51°26' E 004°01'8 8.4
2015-Mar-24 13:34N 51°22' E 004°13'5 4.4
2015-Mar-24 12:30N 51°18' E 004°16'0 0.0
2015-Mar-24 11:30N 51°18' E 004°16'0 0.0
2015-Mar-24 10:33N 51°18' E 004°16'0 0.0
2015-Mar-24 09:33N 51°18' E 004°16'0 0.0
2015-Mar-24 08:33N 51°18' E 004°16'0 0.0
2015-Mar-24 07:30N 51°18' E 004°16'0 0.0
2015-Mar-24 06:33N 51°18' E 004°16'0 0.0
2015-Mar-24 05:33N 51°18' E 004°16'0 0.0
2015-Mar-24 04:27N 51°18' E 004°16'2 2.5
2015-Mar-24 03:34N 51°20' E 004°16'9 9.2
2015-Mar-24 02:33N 51°23' E 004°02'8 8.2
2015-Mar-24 01:34N 51°21' E 003°50'1110.5
2015-Mar-24 00:33N 51°26' E 003°35'1716.6
2015-Mar-23 23:33N 51°24' E 003°08'10 9.6
2015-Mar-23 22:33N 51°33' E 003°09'1414.2
2015-Mar-23 21:33N 51°47' E 003°14'1111.0
2015-Mar-23 20:32N 51°58' E 003°19'9 8.0
2015-Mar-23 19:25N 52°03' E 003°31'9 9.6
2015-Mar-23 18:32N 52°03' E 003°45'8 7.8
2015-Mar-23 17:33N 52°01' E 003°57'10 9.9
2015-Mar-23 16:33N 51°57' E 004°11'7 6.7
2015-Mar-23 15:33N 51°54' E 004°21'3 3.2
2015-Mar-23 14:32N 51°53' E 004°26'0 0.0
2015-Mar-23 13:32N 51°53' E 004°26'0 0.0
2015-Mar-23 12:32N 51°53' E 004°26'0 0.0
2015-Mar-23 11:32N 51°53' E 004°26'0 0.0
2015-Mar-23 10:32N 51°53' E 004°26'0 0.0
2015-Mar-23 09:32N 51°53' E 004°26'0 0.0
2015-Mar-23 08:32N 51°53' E 004°26'0 0.0
2015-Mar-23 07:32N 51°53' E 004°26'0 0.0
2015-Mar-23 06:32N 51°53' E 004°26'0 0.0
2015-Mar-23 05:29N 51°53' E 004°26'2 1.6
2015-Mar-23 04:33N 51°54' E 004°23'9 8.7
2015-Mar-23 03:33N 51°57' E 004°10'1110.9
2015-Mar-23 02:33N 52°01' E 003°54'9 9.0
2015-Mar-23 01:33N 52°08' E 003°46'1312.7
2015-Mar-23 00:33N 52°21' E 003°48'1413.5
2015-Mar-22 23:33N 52°34' E 003°52'3816.3
2015-Mar-22 21:13N 53°08' E 004°22'1315.8
2015-Mar-22 20:25N 53°19' E 004°32'1314.7
2015-Mar-22 19:33N 53°29' E 004°44'1515.3
2015-Mar-22 18:33N 53°36' E 005°07'1616.1
2015-Mar-22 17:33N 53°41' E 005°33'1817.7
2015-Mar-22 16:33N 53°46' E 006°02'2118.2
2015-Mar-22 15:25N 53°52' E 006°35'2117.7
2015-Mar-22 14:16N 53°56' E 007°09'1217.1
2015-Mar-22 13:33N 53°59' E 007°29'1414.4
2015-Mar-22 12:34N 53°52' E 007°51'1313.1
2015-Mar-22 11:33N 53°46' E 008°11'1413.7
2015-Mar-22 10:33N 53°37' E 008°29'2 2.3
2015-Mar-22 09:32N 53°35' E 008°31'0 0.0
2015-Mar-22 08:26N 53°35' E 008°31'0 0.0
2015-Mar-22 07:29N 53°35' E 008°31'0 0.0
2015-Mar-22 06:32N 53°35' E 008°31'0 0.0
2015-Mar-22 05:23N 53°35' E 008°31'0 0.0
2015-Mar-22 04:29N 53°35' E 008°31'0 0.0
2015-Mar-22 03:26N 53°35' E 008°31'0 0.0
2015-Mar-22 02:29N 53°35' E 008°31'0 0.0
2015-Mar-22 01:32N 53°35' E 008°31'0 0.0
2015-Mar-22 00:32N 53°35' E 008°31'0 0.0
2015-Mar-21 23:32N 53°35' E 008°31'0 0.0
2015-Mar-21 22:29N 53°35' E 008°31'0 0.0
2015-Mar-21 21:23N 53°35' E 008°31'0 0.0
2015-Mar-21 20:32N 53°35' E 008°31'0 0.0
2015-Mar-21 19:17N 53°35' E 008°31'0 0.0
2015-Mar-21 18:29N 53°35' E 008°31'0 0.0
2015-Mar-21 17:29N 53°35' E 008°31'0 0.0
2015-Mar-21 16:32N 53°35' E 008°31'0 0.0
2015-Mar-21 15:32N 53°35' E 008°31'0 0.0
2015-Mar-21 14:32N 53°35' E 008°31'0 0.1
2015-Mar-21 13:33N 53°35' E 008°31'1111.0
2015-Mar-21 12:34N 53°43' E 008°18'1616.1
2015-Mar-21 11:33N 53°52' E 007°55'4 4.3
2015-Mar-21 10:32N 53°56' E 007°52'0 0.0
2015-Mar-21 09:32N 53°56' E 007°52'0 0.0
2015-Mar-21 08:29N 53°56' E 007°52'0 0.0
2015-Mar-21 07:32N 53°56' E 007°52'0 0.0
2015-Mar-21 06:29N 53°56' E 007°52'0 0.0
2015-Mar-21 05:23N 53°56' E 007°52'0 0.3
2015-Mar-21 04:32N 53°56' E 007°51'0 0.0
2015-Mar-21 03:29N 53°56' E 007°51'0 0.1
2015-Mar-21 02:29N 53°56' E 007°51'0 0.1
2015-Mar-21 01:32N 53°56' E 007°51'0 0.1
2015-Mar-21 00:32N 53°56' E 007°51'6 6.3
2015-Mar-20 23:33N 53°57' E 007°41'1212.1
2015-Mar-20 22:33N 54°07' E 007°29'1312.8
2015-Mar-20 21:33N 54°19' E 007°22'1313.0
2015-Mar-20 20:33N 54°31' E 007°14'1313.2
2015-Mar-20 19:33N 54°43' E 007°05'19710.9
2015-Mar-20 01:32N 57°42' E 009°34'1513.1
2015-Mar-20 00:25N 57°47' E 009°60'1213.3
2015-Mar-19 23:33N 57°49' E 010°21'1312.7
2015-Mar-19 22:33N 57°48' E 010°45'1212.2
2015-Mar-19 21:33N 57°40' E 011°03'1616.4
2015-Mar-19 20:33N 57°29' E 011°25'1716.9
2015-Mar-19 19:34N 57°13' E 011°36'1716.6
2015-Mar-19 18:33N 56°57' E 011°46'1515.4
2015-Mar-19 17:33N 56°42' E 011°51'1716.8
2015-Mar-19 16:33N 56°28' E 011°35'1717.1
2015-Mar-19 15:33N 56°13' E 011°19'1717.5
2015-Mar-19 14:33N 55°59' E 011°02'1817.9
2015-Mar-19 13:33N 55°43' E 010°48'2316.6
2015-Mar-19 12:12N 55°22' E 011°02'913.0
2015-Mar-19 11:31N 55°13' E 011°06'1514.4
2015-Mar-19 10:29N 54°59' E 010°59'  

Dump ship's entire track history